createdAt,value
2023-03-14T00:02:07.590Z,6.80
2023-03-14T00:05:13.788Z,6.96
2023-03-14T00:08:15.426Z,7.06
2023-03-14T00:11:20.613Z,7.14
2023-03-14T00:14:22.227Z,7.08
2023-03-14T00:17:24.018Z,6.99
2023-03-14T00:20:25.609Z,6.89
2023-03-14T00:23:28.071Z,6.78
2023-03-14T00:26:29.688Z,6.67
2023-03-14T00:29:31.370Z,6.55
2023-03-14T00:32:33.039Z,6.41
2023-03-14T00:35:34.602Z,6.27
2023-03-14T00:38:36.736Z,6.17
2023-03-14T00:41:38.435Z,6.15
2023-03-14T00:44:40.091Z,6.18
2023-03-14T00:47:41.640Z,6.27
2023-03-14T00:50:43.226Z,6.34
2023-03-14T00:53:44.927Z,6.48
2023-03-14T00:56:46.707Z,6.92
2023-03-14T00:59:48.307Z,7.44
2023-03-14T01:02:50.074Z,7.80
2023-03-14T01:05:51.814Z,7.64
2023-03-14T01:08:54.620Z,7.38
2023-03-14T01:11:56.138Z,7.21
2023-03-14T01:14:58.200Z,7.07
2023-03-14T01:17:59.901Z,6.96
2023-03-14T01:21:03.573Z,6.83
2023-03-14T01:24:07.594Z,6.78
2023-03-14T01:27:09.150Z,6.75
2023-03-14T01:30:12.364Z,6.71
2023-03-14T01:33:14.104Z,6.66
2023-03-14T01:36:15.773Z,6.64
2023-03-14T01:39:17.402Z,6.52
2023-03-14T01:42:19.458Z,6.34
2023-03-14T01:46:05.894Z,6.20
2023-03-14T01:49:33.361Z,6.07
2023-03-14T01:52:39.427Z,5.95
2023-03-14T01:55:41.198Z,5.71
2023-03-14T01:58:45.997Z,5.44
2023-03-14T02:01:48.583Z,5.19
2023-03-14T02:05:11.888Z,5.06
2023-03-14T02:08:20.193Z,5.04
2023-03-14T02:11:22.312Z,4.99
2023-03-14T02:14:31.984Z,4.91
2023-03-14T02:17:34.302Z,4.72
2023-03-14T02:20:54.910Z,4.80
2023-03-14T02:24:19.968Z,5.00
2023-03-14T02:27:22.127Z,5.02
2023-03-14T02:30:27.300Z,5.13
2023-03-14T02:33:29.077Z,5.17
2023-03-14T02:36:31.217Z,5.29
2023-03-14T02:39:44.659Z,5.33
2023-03-14T02:42:46.362Z,5.55
2023-03-14T02:45:48.983Z,5.76
2023-03-14T02:48:55.124Z,5.85
2023-03-14T02:51:56.801Z,5.85
2023-03-14T02:54:58.306Z,5.76
2023-03-14T02:57:59.905Z,5.67
2023-03-14T03:01:01.374Z,5.55
2023-03-14T03:04:03.097Z,5.42
2023-03-14T03:07:04.696Z,5.32
2023-03-14T03:10:06.981Z,5.23
2023-03-14T03:13:08.565Z,5.10
2023-03-14T03:16:10.186Z,4.95
2023-03-14T03:19:11.678Z,4.81
2023-03-14T03:22:13.286Z,4.65
2023-03-14T03:25:14.834Z,4.52
2023-03-14T03:28:16.441Z,4.41
2023-03-14T03:31:17.931Z,4.36
2023-03-14T03:34:19.591Z,4.45
2023-03-14T03:37:21.225Z,4.50
2023-03-14T03:40:22.896Z,4.54
2023-03-14T03:43:24.429Z,4.48
2023-03-14T03:46:26.227Z,4.42
2023-03-14T03:49:32.306Z,4.35
2023-03-14T03:52:33.886Z,4.27
2023-03-14T03:55:35.661Z,4.13
2023-03-14T03:58:37.243Z,4.00
2023-03-14T04:01:38.854Z,3.90
2023-03-14T04:04:40.621Z,3.80
2023-03-14T04:07:42.344Z,3.72
2023-03-14T04:10:43.896Z,3.68
2023-03-14T04:13:45.537Z,3.66
2023-03-14T04:16:47.173Z,3.59
2023-03-14T04:19:51.952Z,3.49
2023-03-14T04:22:53.454Z,3.43
2023-03-14T04:25:55.058Z,3.40
2023-03-14T04:28:56.678Z,3.42
2023-03-14T04:31:58.786Z,3.45
2023-03-14T04:35:00.411Z,3.54
2023-03-14T04:38:02.081Z,3.66
2023-03-14T04:41:04.269Z,3.66
2023-03-14T04:44:05.951Z,3.51
2023-03-14T04:47:07.409Z,3.19
2023-03-14T04:50:10.233Z,3.00
2023-03-14T04:53:11.895Z,2.98
2023-03-14T04:56:13.559Z,2.96
2023-03-14T04:59:15.096Z,2.92
2023-03-14T05:02:16.785Z,2.88
2023-03-14T05:05:18.433Z,2.82
2023-03-14T05:08:20.019Z,2.47
2023-03-14T05:11:21.666Z,2.10
2023-03-14T05:14:23.284Z,2.14
2023-03-14T05:17:24.925Z,2.06
2023-03-14T05:20:26.580Z,1.93
2023-03-14T05:23:28.783Z,1.81
2023-03-14T05:26:30.342Z,2.05
2023-03-14T05:29:31.970Z,2.57
2023-03-14T05:32:33.655Z,2.87
2023-03-14T05:35:35.424Z,3.07
2023-03-14T05:38:37.005Z,3.11
2023-03-14T05:41:38.551Z,3.25
2023-03-14T05:44:40.147Z,3.60
2023-03-14T05:47:41.869Z,4.16
2023-03-14T05:50:43.544Z,4.58
2023-03-14T05:53:45.165Z,4.67
2023-03-14T05:56:46.895Z,4.80
2023-03-14T05:59:48.462Z,4.95
2023-03-14T06:02:49.990Z,5.00
2023-03-14T06:05:51.902Z,5.24
2023-03-14T06:08:53.476Z,5.85
2023-03-14T06:11:55.026Z,6.14
2023-03-14T06:14:56.731Z,6.13
2023-03-14T06:17:58.266Z,6.09
2023-03-14T06:20:59.970Z,6.24
2023-03-14T06:24:01.576Z,6.42
2023-03-14T06:27:03.109Z,6.76
2023-03-14T06:30:05.749Z,6.98
2023-03-14T06:33:07.645Z,7.51
2023-03-14T06:36:09.678Z,8.35
2023-03-14T06:39:11.354Z,8.91
2023-03-14T06:42:12.865Z,9.23
2023-03-14T06:45:14.428Z,9.49
2023-03-14T06:48:16.303Z,9.73
2023-03-14T06:51:18.026Z,9.91
2023-03-14T06:54:19.589Z,10.03
2023-03-14T06:57:21.142Z,10.12
2023-03-14T07:00:23.009Z,10.22
2023-03-14T07:03:24.809Z,10.27
2023-03-14T07:06:26.371Z,10.32
2023-03-14T07:09:27.965Z,10.49
2023-03-14T07:12:29.601Z,10.87
2023-03-14T07:15:31.502Z,11.48
2023-03-14T07:18:33.758Z,11.61
2023-03-14T07:21:35.392Z,12.02
2023-03-14T07:24:36.968Z,12.35
2023-03-14T07:27:38.886Z,12.41
2023-03-14T07:30:40.496Z,12.56
2023-03-14T07:33:42.077Z,12.95
2023-03-14T07:36:43.701Z,13.06
2023-03-14T07:39:45.614Z,12.91
2023-03-14T07:42:47.203Z,12.79
2023-03-14T07:45:51.255Z,12.70
2023-03-14T07:48:53.203Z,12.90
2023-03-14T07:51:54.756Z,13.08
2023-03-14T07:54:56.304Z,13.80
2023-03-14T07:57:57.883Z,14.45
2023-03-14T08:00:59.851Z,14.54
2023-03-14T08:04:01.531Z,14.36
2023-03-14T08:07:03.199Z,14.15
2023-03-14T08:10:05.852Z,14.33
2023-03-14T08:13:07.623Z,15.00
2023-03-14T08:16:09.639Z,15.41
2023-03-14T08:19:11.254Z,15.76
2023-03-14T08:22:12.898Z,16.09
2023-03-14T08:25:14.705Z,15.91
2023-03-14T08:28:16.394Z,15.61
2023-03-14T08:31:18.319Z,15.32
2023-03-14T08:34:20.037Z,15.10
2023-03-14T08:37:26.831Z,15.07
2023-03-14T08:40:28.885Z,15.08
2023-03-14T08:43:30.712Z,15.04
2023-03-14T08:46:32.489Z,14.90
2023-03-14T08:49:34.220Z,14.84
2023-03-14T08:52:35.936Z,14.83
2023-03-14T08:55:37.512Z,14.72
2023-03-14T08:58:39.186Z,14.60
2023-03-14T09:01:40.907Z,14.50
2023-03-14T09:04:42.708Z,14.49
2023-03-14T09:07:44.394Z,14.66
2023-03-14T09:10:45.983Z,14.75
2023-03-14T09:13:47.577Z,14.68
2023-03-14T09:16:49.349Z,14.92
2023-03-14T09:19:51.036Z,15.41
2023-03-14T09:22:52.592Z,15.91
2023-03-14T09:26:01.074Z,16.40
2023-03-14T09:29:02.812Z,16.98
2023-03-14T09:32:04.602Z,16.79
2023-03-14T09:35:06.305Z,16.56
2023-03-14T09:38:07.997Z,16.70
2023-03-14T09:41:17.044Z,16.60
2023-03-14T09:44:28.393Z,16.39
2023-03-14T09:47:30.404Z,16.35
2023-03-14T09:50:38.574Z,16.41
2023-03-14T09:53:46.135Z,16.35
2023-03-14T09:56:48.093Z,16.20
2023-03-14T09:59:50.700Z,15.91
2023-03-14T10:02:55.568Z,15.81
2023-03-14T10:05:57.603Z,16.01
2023-03-14T10:08:59.404Z,16.35
2023-03-14T10:12:11.231Z,16.70
2023-03-14T10:15:14.684Z,17.29
2023-03-14T10:18:16.506Z,17.33
2023-03-14T10:21:28.645Z,17.14
2023-03-14T10:24:32.759Z,17.33
2023-03-14T10:27:36.384Z,17.77
2023-03-14T10:30:45.672Z,18.06
2023-03-14T10:34:05.672Z,18.75
2023-03-14T10:37:27.864Z,19.27
2023-03-14T10:40:33.351Z,19.36
2023-03-14T10:43:36.964Z,19.51
2023-03-14T10:46:38.627Z,19.37
2023-03-14T10:49:40.201Z,18.91
2023-03-14T10:53:01.478Z,18.46
2023-03-14T10:56:04.510Z,17.72
2023-03-14T10:59:14.787Z,17.21
2023-03-14T11:02:32.322Z,16.81
2023-03-14T11:05:58.495Z,16.57
2023-03-14T11:09:03.594Z,16.42
2023-03-14T11:12:18.492Z,16.30
2023-03-14T11:15:47.070Z,16.11
2023-03-14T11:18:54.749Z,15.90
2023-03-14T11:22:18.225Z,15.76
2023-03-14T11:25:41.389Z,15.70
2023-03-14T11:28:50.636Z,15.65
2023-03-14T11:31:56.967Z,15.62
2023-03-14T11:35:00.423Z,15.61
2023-03-14T11:38:04.888Z,15.68
2023-03-14T11:41:11.624Z,15.79
2023-03-14T11:44:19.568Z,15.83
2023-03-14T11:47:30.414Z,15.79
2023-03-14T11:50:32.730Z,15.74
2023-03-14T11:53:49.560Z,15.73
2023-03-14T11:56:58.729Z,15.67
2023-03-14T12:00:05.360Z,15.53
2023-03-14T12:03:15.974Z,15.50
2023-03-14T12:06:17.481Z,15.53
2023-03-14T12:09:21.525Z,15.64
2023-03-14T12:12:25.841Z,15.76
2023-03-14T12:15:27.549Z,15.91
2023-03-14T12:18:34.031Z,16.23
2023-03-14T12:21:48.184Z,16.60
2023-03-14T12:24:52.959Z,16.68
2023-03-14T12:27:57.180Z,16.68
2023-03-14T12:31:36.973Z,16.65
2023-03-14T12:34:43.495Z,16.58
2023-03-14T12:37:46.858Z,16.32
2023-03-14T12:41:17.641Z,16.24
2023-03-14T12:44:31.649Z,16.28
2023-03-14T12:47:33.158Z,16.19
2023-03-14T12:50:46.532Z,16.30
2023-03-14T12:54:03.741Z,16.51
2023-03-14T12:57:28.120Z,16.37
2023-03-14T13:00:39.057Z,16.00
2023-03-14T13:03:46.741Z,15.76
2023-03-14T13:06:48.313Z,15.52
2023-03-14T13:13:21.715Z,15.01
2023-03-14T13:16:24.155Z,14.81
2023-03-14T13:19:30.464Z,14.62
2023-03-14T13:22:34.771Z,14.47
2023-03-14T13:25:37.225Z,14.35
2023-03-14T13:28:38.914Z,14.28
2023-03-14T13:31:45.066Z,14.21
2023-03-14T13:34:46.781Z,14.15
2023-03-14T13:37:50.057Z,14.09
2023-03-14T13:40:56.012Z,14.01
2023-03-14T13:44:07.512Z,13.93
2023-03-14T13:47:27.377Z,13.83
2023-03-14T13:50:28.969Z,13.78
2023-03-14T13:53:30.728Z,13.72
2023-03-14T13:56:33.824Z,13.67
2023-03-14T13:59:36.223Z,13.63
2023-03-14T14:02:39.301Z,13.62
2023-03-14T14:05:41.421Z,13.60
2023-03-14T14:08:43.189Z,13.58
2023-03-14T14:12:14.262Z,13.53
2023-03-14T14:15:25.331Z,13.50
2023-03-14T14:18:28.248Z,13.46
2023-03-14T14:21:29.903Z,13.40
2023-03-14T14:24:32.937Z,13.31
2023-03-14T14:27:38.295Z,13.21
2023-03-14T14:30:39.920Z,13.19
2023-03-14T14:33:42.743Z,13.20
2023-03-14T14:36:45.799Z,13.18
2023-03-14T14:39:49.114Z,13.15
2023-03-14T14:42:51.382Z,13.08
2023-03-14T14:45:54.777Z,13.01
2023-03-14T14:49:07.453Z,12.95
2023-03-14T14:52:18.466Z,12.92
2023-03-14T14:55:21.006Z,12.86
2023-03-14T14:58:27.565Z,12.82
2023-03-14T15:01:35.477Z,12.79
2023-03-14T15:04:37.133Z,12.81
2023-03-14T15:07:38.629Z,12.79
2023-03-14T15:10:41.764Z,12.72
2023-03-14T15:13:44.957Z,12.58
2023-03-14T15:16:46.484Z,12.40
2023-03-14T15:19:48.392Z,12.25
2023-03-14T15:22:50.640Z,12.14
2023-03-14T15:25:55.850Z,12.06
2023-03-14T15:28:58.189Z,11.94
2023-03-14T15:31:59.990Z,11.87
2023-03-14T15:35:04.622Z,11.80
2023-03-14T15:38:06.465Z,11.74
2023-03-14T15:41:10.495Z,11.70
2023-03-14T15:44:12.134Z,11.66
2023-03-14T15:47:14.200Z,11.63
2023-03-14T15:50:16.656Z,11.58
2023-03-14T15:53:18.519Z,11.52
2023-03-14T15:56:21.031Z,11.45
2023-03-14T15:59:23.763Z,11.39
2023-03-14T16:02:25.386Z,11.28
2023-03-14T16:05:26.976Z,11.17
2023-03-14T16:08:28.547Z,11.07
2023-03-14T16:11:30.147Z,11.00
2023-03-14T16:14:31.922Z,10.93
2023-03-14T16:17:33.969Z,10.88
2023-03-14T16:20:47.142Z,10.83
2023-03-14T16:23:49.029Z,10.80
2023-03-14T16:26:50.632Z,10.77
2023-03-14T16:29:52.137Z,10.71
2023-03-14T16:32:53.698Z,10.64
2023-03-14T16:35:57.100Z,10.52
2023-03-14T16:38:58.786Z,10.34
2023-03-14T16:42:00.336Z,10.16
2023-03-14T16:45:02.008Z,10.05
2023-03-14T16:48:03.707Z,9.89
2023-03-14T16:51:05.468Z,9.78
2023-03-14T16:54:07.087Z,9.57
2023-03-14T16:57:09.041Z,9.46
2023-03-14T17:00:11.511Z,9.36
2023-03-14T17:03:14.126Z,9.21
2023-03-14T17:10:05.948Z,8.92
2023-03-14T17:13:07.763Z,9.05
2023-03-14T17:16:09.920Z,9.11
2023-03-14T17:19:11.547Z,9.16
2023-03-14T17:22:23.300Z,9.11
2023-03-14T17:25:25.272Z,9.07
2023-03-14T17:28:27.978Z,9.04
2023-03-14T17:31:29.693Z,8.98
2023-03-14T17:34:31.356Z,8.97
2023-03-14T17:37:33.059Z,9.00
2023-03-14T17:40:34.701Z,8.98
2023-03-14T17:43:37.040Z,8.98
2023-03-14T17:46:38.956Z,8.99
2023-03-14T17:49:40.737Z,8.91
2023-03-14T17:52:42.815Z,8.84
2023-03-14T17:55:44.584Z,8.76
2023-03-14T17:58:46.133Z,8.69
2023-03-14T18:01:48.089Z,8.65
2023-03-14T18:04:50.421Z,8.61
2023-03-14T18:07:52.247Z,8.58
2023-03-14T18:10:54.398Z,8.58
2023-03-14T18:13:56.061Z,8.60
2023-03-14T18:16:57.529Z,8.62
2023-03-14T18:19:59.023Z,8.65
2023-03-14T18:23:00.497Z,8.68
2023-03-14T18:26:02.251Z,8.71
2023-03-14T18:29:04.042Z,8.74
2023-03-14T18:32:05.976Z,8.76
2023-03-14T18:35:08.126Z,8.76
2023-03-14T18:38:09.653Z,8.79
2023-03-14T18:41:13.414Z,8.71
2023-03-14T18:44:15.130Z,8.63
2023-03-14T18:47:16.906Z,8.60
2023-03-14T18:50:18.735Z,8.58
2023-03-14T18:53:20.496Z,8.56
2023-03-14T18:56:22.555Z,8.49
2023-03-14T18:59:24.081Z,8.43
2023-03-14T19:02:26.111Z,8.38
2023-03-14T19:05:27.765Z,8.36
2023-03-14T19:08:29.464Z,8.33
2023-03-14T19:11:30.999Z,8.28
2023-03-14T19:14:32.636Z,8.20
2023-03-14T19:17:34.355Z,8.15
2023-03-14T19:20:36.224Z,8.13
2023-03-14T19:23:40.280Z,8.13
2023-03-14T19:26:41.951Z,8.11
2023-03-14T19:29:44.658Z,8.06
2023-03-14T19:32:46.301Z,8.01
2023-03-14T19:35:48.388Z,7.92
2023-03-14T19:38:51.056Z,7.82
2023-03-14T19:41:52.657Z,7.77
2023-03-14T19:44:54.342Z,7.63
2023-03-14T19:47:55.913Z,7.47
2023-03-14T19:50:59.661Z,7.30
2023-03-14T19:54:03.692Z,7.22
2023-03-14T19:57:05.388Z,7.07
2023-03-14T20:00:07.964Z,6.92
2023-03-14T20:03:09.709Z,6.88
2023-03-14T20:06:12.246Z,6.81
2023-03-14T20:09:13.854Z,6.73
2023-03-14T20:12:15.421Z,6.69
2023-03-14T20:15:17.325Z,6.64
2023-03-14T20:18:18.911Z,6.59
2023-03-14T20:21:20.978Z,6.53
2023-03-14T20:24:22.821Z,6.41
2023-03-14T20:27:25.309Z,6.27
2023-03-14T20:30:26.752Z,6.05
2023-03-14T20:33:31.521Z,5.82
2023-03-14T20:36:33.227Z,5.65
2023-03-14T20:39:35.825Z,5.54
2023-03-14T20:42:38.640Z,5.53
2023-03-14T20:45:43.203Z,5.49
2023-03-14T20:48:44.814Z,5.40
2023-03-14T20:51:47.557Z,5.32
2023-03-14T20:54:49.532Z,5.34
2023-03-14T20:57:51.058Z,5.30
2023-03-14T21:00:52.595Z,5.29
2023-03-14T21:03:54.367Z,5.31
2023-03-14T21:06:55.924Z,5.33
2023-03-14T21:09:57.443Z,5.36
2023-03-14T21:12:59.137Z,5.27
2023-03-14T21:16:01.700Z,5.26
2023-03-14T21:19:03.281Z,5.32
2023-03-14T21:22:06.744Z,5.35
2023-03-14T21:25:08.545Z,5.30
2023-03-14T21:28:10.142Z,5.11
2023-03-14T21:31:12.416Z,5.07
2023-03-14T21:34:14.268Z,5.07
2023-03-14T21:37:16.774Z,5.20
2023-03-14T21:40:18.431Z,5.47
2023-03-14T21:43:19.948Z,5.63
2023-03-14T21:46:21.525Z,5.77
2023-03-14T21:49:23.081Z,5.77
2023-03-14T21:52:25.994Z,5.71
2023-03-14T21:55:27.491Z,5.57
2023-03-14T21:58:29.038Z,5.35
2023-03-14T22:01:30.779Z,5.34
2023-03-14T22:04:33.554Z,5.34
2023-03-14T22:07:35.125Z,5.52
2023-03-14T22:10:36.597Z,5.76
2023-03-14T22:13:38.420Z,5.91
2023-03-14T22:16:40.114Z,6.01
2023-03-14T22:19:41.594Z,6.24
2023-03-14T22:22:43.187Z,6.49
2023-03-14T22:25:46.515Z,6.66
2023-03-14T22:28:48.102Z,6.74
2023-03-14T22:31:49.746Z,6.77
2023-03-14T22:34:51.319Z,6.78
2023-03-14T22:37:52.795Z,6.97
2023-03-14T22:40:54.488Z,7.36
2023-03-14T22:43:55.945Z,7.59
2023-03-14T22:46:57.576Z,7.75
2023-03-14T22:49:59.019Z,7.78
2023-03-14T22:53:00.576Z,7.75
2023-03-14T22:56:02.606Z,7.78
2023-03-14T22:59:04.089Z,7.81
2023-03-14T23:02:05.553Z,7.86
2023-03-14T23:05:27.188Z,7.92
2023-03-14T23:08:28.723Z,7.93
2023-03-14T23:11:30.132Z,7.91
2023-03-14T23:14:31.667Z,7.86
2023-03-14T23:17:33.406Z,7.94
2023-03-14T23:20:35.293Z,8.11
2023-03-14T23:23:37.182Z,8.25
2023-03-14T23:26:38.786Z,8.32
2023-03-14T23:29:40.454Z,8.47
2023-03-14T23:32:42.949Z,8.58
2023-03-14T23:35:44.585Z,8.64
2023-03-14T23:38:46.461Z,8.73
2023-03-14T23:41:47.998Z,8.79
2023-03-14T23:44:49.706Z,8.85
2023-03-14T23:47:51.348Z,8.87
2023-03-14T23:50:56.404Z,8.87
2023-03-14T23:53:57.962Z,8.84
2023-03-14T23:56:59.533Z,8.80
